createdAt,value
2019-05-28T00:02:14.679Z,98627.75
2019-05-28T00:04:47.153Z,98629.66
2019-05-28T00:07:19.357Z,98626.70
2019-05-28T00:09:51.567Z,98622.28
2019-05-28T00:12:23.910Z,98614.74
2019-05-28T00:14:56.212Z,98613.26
2019-05-28T00:17:28.407Z,98614.25
2019-05-28T00:20:00.647Z,98610.66
2019-05-28T00:22:32.846Z,98611.34
2019-05-28T00:25:05.258Z,98618.42
2019-05-28T00:27:37.573Z,98616.45
2019-05-28T00:30:19.719Z,98616.42
2019-05-28T00:32:44.351Z,98615.66
2019-05-28T00:35:16.595Z,98614.77
2019-05-28T00:37:48.876Z,98610.42
2019-05-28T00:40:21.237Z,98609.14
2019-05-28T00:42:53.801Z,98602.66
2019-05-28T00:45:26.359Z,98591.92
2019-05-28T00:47:58.555Z,98597.58
2019-05-28T00:50:30.791Z,98592.58
2019-05-28T00:53:02.997Z,98588.30
2019-05-28T00:55:35.237Z,98589.34
2019-05-28T00:58:07.526Z,98587.27
2019-05-28T01:00:48.236Z,98582.95
2019-05-28T01:03:21.540Z,98580.09
2019-05-28T01:05:53.833Z,98577.78
2019-05-28T01:08:26.136Z,98583.61
2019-05-28T01:10:58.432Z,98578.80
2019-05-28T01:13:30.800Z,98577.09
2019-05-28T01:16:03.021Z,98582.69
2019-05-28T01:18:35.370Z,98577.72
2019-05-28T01:21:07.598Z,98580.97
2019-05-28T01:23:39.989Z,98578.60
2019-05-28T01:26:12.232Z,98578.56
2019-05-28T01:28:44.489Z,98581.66
2019-05-28T01:31:16.783Z,98574.52
2019-05-28T01:33:48.988Z,98575.33
2019-05-28T01:36:21.281Z,98573.55
2019-05-28T01:38:53.479Z,98569.08
2019-05-28T01:41:25.735Z,98564.83
2019-05-28T01:43:57.905Z,98564.62
2019-05-28T01:46:30.123Z,98561.96
2019-05-28T01:49:02.416Z,98569.13
2019-05-28T01:51:34.651Z,98566.23
2019-05-28T01:54:06.859Z,98565.21
2019-05-28T01:56:39.081Z,98563.47
2019-05-28T01:59:11.280Z,98560.27
2019-05-28T02:01:43.572Z,98561.33
2019-05-28T02:04:15.766Z,98553.36
2019-05-28T02:06:47.987Z,98556.06
2019-05-28T02:09:20.265Z,98554.19
2019-05-28T02:11:52.503Z,98557.55
2019-05-28T02:14:24.768Z,98559.52
2019-05-28T02:16:58.023Z,98559.16
2019-05-28T02:19:30.305Z,98560.73
2019-05-28T02:22:02.534Z,98559.75
2019-05-28T02:24:34.808Z,98555.70
2019-05-28T02:27:07.037Z,98552.91
2019-05-28T02:29:39.239Z,98551.53
2019-05-28T02:32:11.545Z,98550.86
2019-05-28T02:34:43.838Z,98553.45
2019-05-28T02:37:16.184Z,98556.94
2019-05-28T02:39:48.485Z,98553.81
2019-05-28T02:42:20.857Z,98552.99
2019-05-28T02:44:53.061Z,98557.37
2019-05-28T02:47:25.309Z,98555.22
2019-05-28T02:49:57.568Z,98551.24
2019-05-28T02:52:31.969Z,98549.59
2019-05-28T02:55:05.519Z,98540.59
2019-05-28T02:57:38.985Z,98540.48
2019-05-28T03:00:13.437Z,98544.36
2019-05-28T03:02:48.256Z,98550.45
2019-05-28T03:05:20.540Z,98544.53
2019-05-28T03:07:55.670Z,98548.61
2019-05-28T03:10:59.887Z,98551.70
2019-05-28T03:13:10.960Z,98549.02
2019-05-28T03:15:44.897Z,98543.16
2019-05-28T03:18:17.201Z,98541.05
2019-05-28T03:20:49.413Z,98537.45
2019-05-28T03:23:21.725Z,98537.52
2019-05-28T03:25:54.011Z,98539.59
2019-05-28T03:28:26.474Z,98543.02
2019-05-28T03:30:58.693Z,98547.22
2019-05-28T03:33:30.920Z,98544.72
2019-05-28T03:36:03.315Z,98549.06
2019-05-28T03:38:35.649Z,98556.77
2019-05-28T03:41:08.005Z,98562.48
2019-05-28T03:43:40.328Z,98560.52
2019-05-28T03:46:12.614Z,98561.47
2019-05-28T03:48:44.934Z,98560.22
2019-05-28T03:51:17.208Z,98552.72
2019-05-28T03:53:49.515Z,98555.48
2019-05-28T03:56:33.089Z,98553.25
2019-05-28T03:59:05.456Z,98558.51
2019-05-28T04:01:37.687Z,98567.78
2019-05-28T04:04:09.894Z,98573.80
2019-05-28T04:06:42.081Z,98574.30
2019-05-28T04:09:15.528Z,98576.93
2019-05-28T04:11:49.893Z,98572.25
2019-05-28T04:14:22.869Z,98570.94
2019-05-28T04:16:55.699Z,98568.80
2019-05-28T04:19:28.646Z,98571.26
2019-05-28T04:22:01.313Z,98572.84
2019-05-28T04:24:33.530Z,98571.85
2019-05-28T04:27:05.884Z,98570.44
2019-05-28T04:29:38.350Z,98572.67
2019-05-28T04:32:10.553Z,98571.59
2019-05-28T04:34:42.784Z,98570.93
2019-05-28T04:37:14.995Z,98578.10
2019-05-28T04:39:47.209Z,98575.20
2019-05-28T04:42:19.401Z,98580.73
2019-05-28T04:44:51.662Z,98580.73
2019-05-28T04:47:25.918Z,98580.56
2019-05-28T04:49:58.380Z,98583.36
2019-05-28T04:52:30.981Z,98583.92
2019-05-28T04:55:03.234Z,98581.45
2019-05-28T04:57:35.429Z,98583.38
2019-05-28T05:00:08.141Z,98582.43
2019-05-28T05:02:57.850Z,98582.30
2019-05-28T05:05:16.179Z,98587.79
2019-05-28T05:07:50.487Z,98591.97
2019-05-28T05:10:22.681Z,98592.83
2019-05-28T05:12:54.870Z,98591.23
2019-05-28T05:15:28.139Z,98592.06
2019-05-28T05:18:00.424Z,98590.54
2019-05-28T05:20:36.766Z,98592.91
2019-05-28T05:23:23.611Z,98592.38
2019-05-28T05:25:56.643Z,98597.84
2019-05-28T05:28:29.865Z,98592.69
2019-05-28T05:31:02.470Z,98597.45
2019-05-28T05:33:34.884Z,98594.73
2019-05-28T05:36:07.656Z,98600.28
2019-05-28T05:38:40.353Z,98603.45
2019-05-28T05:41:13.182Z,98603.52
2019-05-28T05:43:45.570Z,98605.59
2019-05-28T05:46:18.980Z,98604.87
2019-05-28T05:48:57.530Z,98604.83
2019-05-28T05:51:34.278Z,98601.54
2019-05-28T05:54:08.690Z,98606.23
2019-05-28T05:56:47.113Z,98610.15
2019-05-28T05:59:25.446Z,98608.66
2019-05-28T06:01:57.795Z,98607.23
2019-05-28T06:04:29.985Z,98603.07
2019-05-28T06:07:03.462Z,98604.02
2019-05-28T06:09:35.720Z,98603.76
2019-05-28T06:12:08.005Z,98601.13
2019-05-28T06:14:40.191Z,98600.61
2019-05-28T06:17:16.831Z,98599.66
2019-05-28T06:19:49.967Z,98598.45
2019-05-28T06:22:23.323Z,98602.25
2019-05-28T06:24:56.375Z,98603.37
2019-05-28T06:27:30.531Z,98608.80
2019-05-28T06:30:03.637Z,98607.42
2019-05-28T06:32:38.096Z,98604.76
2019-05-28T06:35:11.549Z,98603.44
2019-05-28T06:37:44.594Z,98607.97
2019-05-28T06:40:18.254Z,98604.88
2019-05-28T06:42:51.355Z,98610.83
2019-05-28T06:45:25.363Z,98607.98
2019-05-28T06:48:00.014Z,98610.78
2019-05-28T06:50:36.342Z,98612.46
2019-05-28T06:53:09.685Z,98618.34
2019-05-28T06:55:42.881Z,98616.05
2019-05-28T06:58:16.071Z,98615.75
2019-05-28T07:00:49.469Z,98613.98
2019-05-28T07:03:23.163Z,98614.80
2019-05-28T07:06:07.110Z,98610.12
2019-05-28T07:08:35.447Z,98611.67
2019-05-28T07:11:08.700Z,98609.80
2019-05-28T07:13:42.042Z,98610.80
2019-05-28T07:16:16.651Z,98613.95
2019-05-28T07:18:57.305Z,98621.02
2019-05-28T07:21:48.012Z,98617.59
2019-05-28T07:24:21.239Z,98620.38
2019-05-28T07:26:54.454Z,98616.12
2019-05-28T07:29:27.512Z,98616.91
2019-05-28T07:32:14.475Z,98613.49
2019-05-28T07:35:11.661Z,98620.59
2019-05-28T07:37:52.872Z,98623.08
2019-05-28T07:40:31.445Z,98611.34
2019-05-28T07:43:04.869Z,98616.09
2019-05-28T07:46:04.637Z,98619.09
2019-05-28T07:48:39.419Z,98618.03
2019-05-28T07:51:12.601Z,98620.98
2019-05-28T07:53:45.735Z,98618.36
2019-05-28T07:56:18.316Z,98618.91
2019-05-28T07:58:50.555Z,98614.80
2019-05-28T08:01:22.789Z,98620.68
2019-05-28T08:03:55.062Z,98619.27
2019-05-28T08:06:28.322Z,98616.43
2019-05-28T08:09:00.615Z,98619.23
2019-05-28T08:11:32.921Z,98616.86
2019-05-28T08:14:05.218Z,98616.46
2019-05-28T08:16:51.716Z,98620.84
2019-05-28T08:19:11.409Z,98619.63
2019-05-28T08:21:43.662Z,98623.08
2019-05-28T08:24:15.962Z,98623.70
2019-05-28T08:26:48.181Z,98622.58
2019-05-28T08:29:20.358Z,98623.84
2019-05-28T08:31:54.991Z,98623.24
2019-05-28T08:34:28.274Z,98626.36
2019-05-28T08:37:05.672Z,98630.28
2019-05-28T08:39:34.424Z,98630.48
2019-05-28T08:42:08.396Z,98632.55
2019-05-28T08:44:40.598Z,98631.73
2019-05-28T08:47:12.919Z,98630.45
2019-05-28T08:49:45.282Z,98628.28
2019-05-28T08:52:17.605Z,98631.58
2019-05-28T08:54:51.226Z,98634.05
2019-05-28T08:57:23.818Z,98638.00
2019-05-28T08:59:56.122Z,98640.23
2019-05-28T09:02:29.034Z,98636.88
2019-05-28T09:05:01.329Z,98638.72
2019-05-28T09:07:33.665Z,98631.74
2019-05-28T09:10:06.872Z,98633.55
2019-05-28T09:12:39.172Z,98637.83
2019-05-28T09:15:11.365Z,98640.79
2019-05-28T09:17:43.578Z,98643.66
2019-05-28T09:20:15.851Z,98639.45
2019-05-28T09:22:48.072Z,98639.75
2019-05-28T09:25:22.872Z,98643.37
2019-05-28T09:27:55.317Z,98648.10
2019-05-28T09:30:27.689Z,98649.00
2019-05-28T09:32:59.947Z,98653.84
2019-05-28T09:35:44.089Z,98657.72
2019-05-28T09:38:06.249Z,98656.84
2019-05-28T09:40:50.096Z,98656.55
2019-05-28T09:43:12.460Z,98654.97
2019-05-28T09:45:44.672Z,98660.01
2019-05-28T09:48:17.131Z,98657.60
2019-05-28T09:50:51.857Z,98663.98
2019-05-28T09:53:23.344Z,98657.56
2019-05-28T09:55:56.677Z,98656.72
2019-05-28T09:58:28.944Z,98660.80
2019-05-28T10:01:01.514Z,98659.69
2019-05-28T10:03:33.723Z,98662.20
2019-05-28T10:06:17.171Z,98659.83
2019-05-28T10:08:43.054Z,98660.52
2019-05-28T10:11:15.226Z,98664.01
2019-05-28T10:13:47.499Z,98662.89
2019-05-28T10:16:19.696Z,98663.92
2019-05-28T10:18:51.939Z,98662.94
2019-05-28T10:21:24.140Z,98664.20
2019-05-28T10:23:56.345Z,98661.70
2019-05-28T10:26:28.530Z,98656.91
2019-05-28T10:29:00.743Z,98661.28
2019-05-28T10:31:32.928Z,98665.44
2019-05-28T10:34:05.139Z,98668.11
2019-05-28T10:36:38.145Z,98667.95
2019-05-28T10:39:10.557Z,98675.92
2019-05-28T10:41:42.748Z,98679.20
2019-05-28T10:44:14.962Z,98679.27
2019-05-28T10:46:47.176Z,98684.28
2019-05-28T10:49:19.420Z,98684.28
2019-05-28T10:51:51.585Z,98685.92
2019-05-28T10:54:23.797Z,98687.34
2019-05-28T10:56:56.138Z,98689.86
2019-05-28T10:59:28.505Z,98690.00
2019-05-28T11:02:00.944Z,98688.86
2019-05-28T11:04:33.327Z,98690.91
2019-05-28T11:07:05.979Z,98689.42
2019-05-28T11:09:38.275Z,98684.95
2019-05-28T11:12:12.851Z,98681.81
2019-05-28T11:14:45.346Z,98684.19
2019-05-28T11:17:18.581Z,98687.33
2019-05-28T11:19:51.897Z,98685.88
2019-05-28T11:22:24.587Z,98686.66
2019-05-28T11:24:57.698Z,98688.20
2019-05-28T11:27:30.873Z,98685.95
2019-05-28T11:30:03.220Z,98689.16
2019-05-28T11:32:35.725Z,98684.78
2019-05-28T11:35:08.489Z,98679.95
2019-05-28T11:37:40.772Z,98681.93
2019-05-28T11:40:13.368Z,98679.83
2019-05-28T11:42:45.654Z,98675.35
2019-05-28T11:45:18.675Z,98672.66
2019-05-28T11:47:52.036Z,98670.55
2019-05-28T11:50:24.323Z,98663.96
2019-05-28T11:52:56.518Z,98661.03
2019-05-28T11:55:28.723Z,98661.95
2019-05-28T11:58:00.915Z,98656.06
2019-05-28T12:00:33.135Z,98655.50
2019-05-28T12:03:05.322Z,98656.36
2019-05-28T12:05:37.532Z,98656.39
2019-05-28T12:08:09.720Z,98654.39
2019-05-28T12:10:41.936Z,98651.78
2019-05-28T12:13:14.138Z,98656.23
2019-05-28T12:15:47.330Z,98657.35
2019-05-28T12:18:21.078Z,98664.93
2019-05-28T12:20:53.317Z,98670.80
2019-05-28T12:23:25.525Z,98674.32
2019-05-28T12:25:57.742Z,98675.84
2019-05-28T12:28:37.645Z,98677.88
2019-05-28T12:31:03.888Z,98672.94
2019-05-28T12:33:36.072Z,98670.96
2019-05-28T12:36:09.805Z,98670.77
2019-05-28T12:38:42.176Z,98667.95
2019-05-28T12:41:14.402Z,98677.16
2019-05-28T12:43:46.589Z,98672.77
2019-05-28T12:46:18.796Z,98671.09
2019-05-28T12:48:51.019Z,98673.36
2019-05-28T12:51:23.228Z,98673.82
2019-05-28T12:53:55.408Z,98668.55
2019-05-28T12:56:27.786Z,98667.09
2019-05-28T12:59:00.089Z,98670.55
2019-05-28T13:01:32.304Z,98668.48
2019-05-28T13:04:04.854Z,98668.91
2019-05-28T13:06:37.229Z,98665.34
2019-05-28T13:09:10.092Z,98662.31
2019-05-28T13:11:42.301Z,98667.48
2019-05-28T13:14:14.492Z,98667.68
2019-05-28T13:16:46.919Z,98671.14
2019-05-28T13:19:19.401Z,98669.30
2019-05-28T13:21:51.793Z,98666.53
2019-05-28T13:24:24.189Z,98673.95
2019-05-28T13:26:56.531Z,98669.95
2019-05-28T13:32:33.880Z,98668.52
2019-05-28T13:35:10.942Z,98672.41
2019-05-28T13:37:43.693Z,98676.59
2019-05-28T13:40:18.069Z,98683.41
2019-05-28T13:42:50.892Z,98686.41
2019-05-28T13:45:23.639Z,98690.01
2019-05-28T13:47:56.559Z,98691.78
2019-05-28T13:50:32.693Z,98693.53
2019-05-28T13:53:05.464Z,98699.37
2019-05-28T13:55:51.314Z,98700.19
2019-05-28T14:24:27.437Z,98722.17
2019-05-28T14:27:00.083Z,98717.89
2019-05-28T14:29:32.720Z,98722.94
2019-05-28T14:32:05.173Z,98717.23
2019-05-28T14:34:45.817Z,98730.80
2019-05-28T14:37:19.462Z,98729.52
2019-05-28T14:39:52.637Z,98737.86
2019-05-28T14:42:25.936Z,98726.33
2019-05-28T14:44:59.018Z,98752.69
2019-05-28T14:47:35.867Z,98738.00
2019-05-28T14:50:10.650Z,98751.41
2019-05-28T14:52:43.722Z,98746.83
2019-05-28T14:55:17.578Z,98746.37
2019-05-28T14:57:50.822Z,98749.70
2019-05-28T15:00:24.869Z,98753.59
2019-05-28T15:02:59.212Z,98754.55
2019-05-28T15:05:35.217Z,98756.48
2019-05-28T15:08:08.284Z,98767.47
2019-05-28T15:10:41.322Z,98765.69
2019-05-28T15:13:14.321Z,98767.20
2019-05-28T15:15:58.874Z,98767.33
2019-05-28T15:18:37.897Z,98770.73
2019-05-28T15:21:12.331Z,98779.14
2019-05-28T15:23:45.279Z,98786.79
2019-05-28T15:26:18.430Z,98785.14
2019-05-28T15:28:52.692Z,98787.25
2019-05-28T15:31:27.144Z,98788.08
2019-05-28T15:33:59.689Z,98795.63
2019-05-28T15:36:32.207Z,98798.04
2019-05-28T15:39:05.844Z,98798.70
2019-05-28T15:41:38.585Z,98798.99
2019-05-28T15:44:12.176Z,98801.43
2019-05-28T15:46:44.786Z,98797.47
2019-05-28T15:49:17.289Z,98802.72
2019-05-28T15:52:06.712Z,98808.76
2019-05-28T15:54:39.456Z,98809.16
2019-05-28T15:57:14.709Z,98801.07
2019-05-28T15:59:47.199Z,98805.03
2019-05-28T16:02:19.698Z,98807.90
2019-05-28T16:04:52.174Z,98809.09
2019-05-28T16:07:24.656Z,98815.95
2019-05-28T16:09:57.263Z,98812.97
2019-05-28T16:12:30.743Z,98811.33
2019-05-28T16:15:05.555Z,98813.87
2019-05-28T16:17:38.227Z,98817.43
2019-05-28T16:20:10.849Z,98818.42
2019-05-28T16:22:58.462Z,98828.71
2019-05-28T16:25:30.989Z,98835.14
2019-05-28T16:28:03.602Z,98835.58
2019-05-28T16:30:36.167Z,98845.56
2019-05-28T16:33:08.972Z,98841.38
2019-05-28T16:35:41.583Z,98848.14
2019-05-28T16:38:17.280Z,98847.68
2019-05-28T16:40:49.748Z,98852.63
2019-05-28T16:43:22.261Z,98860.34
2019-05-28T16:45:54.728Z,98861.44
2019-05-28T16:48:27.220Z,98865.09
2019-05-28T16:50:59.801Z,98870.91
2019-05-28T16:53:32.280Z,98875.13
2019-05-28T16:56:04.830Z,98881.79
2019-05-28T16:58:37.301Z,98882.58
2019-05-28T17:01:21.968Z,98885.45
2019-05-28T17:03:44.063Z,98888.66
2019-05-28T17:06:16.733Z,98891.13
2019-05-28T17:08:49.222Z,98892.61
2019-05-28T17:11:21.775Z,98894.79
2019-05-28T17:13:54.434Z,98892.51
2019-05-28T17:16:26.888Z,98897.00
2019-05-28T17:18:59.381Z,98899.60
2019-05-28T17:21:31.923Z,98905.34
2019-05-28T17:24:04.343Z,98903.36
2019-05-28T17:26:36.905Z,98911.96
2019-05-28T17:29:09.419Z,98914.93
2019-05-28T17:31:42.138Z,98914.70
2019-05-28T17:34:14.617Z,98923.60
2019-05-28T17:36:47.096Z,98929.05
2019-05-28T17:39:19.587Z,98930.59
2019-05-28T17:41:52.130Z,98932.14
2019-05-28T17:44:24.706Z,98934.72
2019-05-28T17:46:57.174Z,98928.70
2019-05-28T17:49:29.690Z,98934.22
2019-05-28T17:52:02.145Z,98932.57
2019-05-28T17:54:34.631Z,98937.52
2019-05-28T17:57:07.096Z,98938.17
2019-05-28T17:59:39.599Z,98948.83
2019-05-28T18:02:12.102Z,98948.37
2019-05-28T18:04:44.651Z,98942.40
2019-05-28T18:07:24.926Z,98938.77
2019-05-28T18:09:57.532Z,98944.55
2019-05-28T18:12:29.994Z,98943.95
2019-05-28T18:15:02.566Z,98940.87
2019-05-28T18:17:35.151Z,98940.02
2019-05-28T18:20:07.915Z,98947.91
2019-05-28T18:22:40.400Z,98956.54
2019-05-28T18:25:13.083Z,98961.22
2019-05-28T18:27:45.587Z,98959.64
2019-05-28T18:30:18.101Z,98968.11
2019-05-28T18:32:50.632Z,98971.20
2019-05-28T18:35:23.205Z,98981.92
2019-05-28T18:38:03.372Z,98983.91
2019-05-28T18:40:29.945Z,98987.59
2019-05-28T18:43:02.430Z,98993.95
2019-05-28T18:45:34.955Z,98997.19
2019-05-28T18:48:07.452Z,99004.07
2019-05-28T18:50:39.991Z,99013.27
2019-05-28T18:53:12.537Z,99018.51
2019-05-28T18:55:45.092Z,99027.37
2019-05-28T18:58:18.702Z,99030.66
2019-05-28T19:00:51.481Z,99038.69
2019-05-28T19:03:24.030Z,99043.13
2019-05-28T19:05:56.576Z,99043.05
2019-05-28T19:12:52.464Z,99046.82
2019-05-28T19:16:46.701Z,99052.44
2019-05-28T19:19:36.163Z,99050.56
2019-05-28T19:22:11.803Z,99058.58
2019-05-28T21:54:06.955Z,99245.45
2019-05-28T22:23:35.840Z,99275.45
2019-05-28T22:31:36.897Z,99291.78
2019-05-28T22:59:46.654Z,99315.73
2019-05-28T23:14:21.873Z,99320.94
2019-05-28T23:16:55.159Z,99323.92
2019-05-28T23:19:28.125Z,99322.50
2019-05-28T23:22:00.988Z,99329.66
2019-05-28T23:24:35.363Z,99326.84
2019-05-28T23:27:09.535Z,99333.25
2019-05-28T23:29:42.833Z,99336.70
2019-05-28T23:32:15.739Z,99338.84
2019-05-28T23:34:48.544Z,99341.44
2019-05-28T23:37:21.455Z,99347.05
2019-05-28T23:39:54.501Z,99349.12
2019-05-28T23:42:27.417Z,99352.94
2019-05-28T23:45:00.522Z,99355.30
2019-05-28T23:47:33.593Z,99354.60
2019-05-28T23:50:08.371Z,99360.22
2019-05-28T23:52:41.809Z,99362.13
2019-05-28T23:55:14.798Z,99366.52
2019-05-28T23:57:47.926Z,99371.20
